sensor_id;sensor_type;location;lat;lon;timestamp;temperature;humidity
23377;DHT22;14353;46.070;13.222;2023-11-22T00:00:36;19.20;49.20
23377;DHT22;14353;46.070;13.222;2023-11-22T00:03:02;19.10;49.10
23377;DHT22;14353;46.070;13.222;2023-11-22T00:05:28;19.10;49.10
23377;DHT22;14353;46.070;13.222;2023-11-22T00:07:54;19.20;49.10
23377;DHT22;14353;46.070;13.222;2023-11-22T00:10:19;19.20;49.20
23377;DHT22;14353;46.070;13.222;2023-11-22T00:12:45;19.20;49.20
23377;DHT22;14353;46.070;13.222;2023-11-22T00:15:11;19.10;49.20
23377;DHT22;14353;46.070;13.222;2023-11-22T00:17:37;19.10;49.20
23377;DHT22;14353;46.070;13.222;2023-11-22T00:20:03;19.10;49.20
23377;DHT22;14353;46.070;13.222;2023-11-22T00:22:32;19.10;49.20
23377;DHT22;14353;46.070;13.222;2023-11-22T00:24:59;19.10;49.20
23377;DHT22;14353;46.070;13.222;2023-11-22T00:27:27;19.10;49.20
23377;DHT22;14353;46.070;13.222;2023-11-22T00:29:53;19.10;49.20
23377;DHT22;14353;46.070;13.222;2023-11-22T00:32:18;19.10;49.20
23377;DHT22;14353;46.070;13.222;2023-11-22T00:34:44;19.10;49.20
23377;DHT22;14353;46.070;13.222;2023-11-22T00:37:10;19.10;49.20
23377;DHT22;14353;46.070;13.222;2023-11-22T00:39:36;19.10;49.20
23377;DHT22;14353;46.070;13.222;2023-11-22T00:42:03;19.10;49.20
23377;DHT22;14353;46.070;13.222;2023-11-22T00:44:30;19.10;49.20
23377;DHT22;14353;46.070;13.222;2023-11-22T00:46:55;19.10;49.20
23377;DHT22;14353;46.070;13.222;2023-11-22T00:49:23;19.10;49.80
23377;DHT22;14353;46.070;13.222;2023-11-22T00:51:49;19.10;49.20
23377;DHT22;14353;46.070;13.222;2023-11-22T00:54:19;19.10;49.10
23377;DHT22;14353;46.070;13.222;2023-11-22T00:56:47;19.10;49.20
23377;DHT22;14353;46.070;13.222;2023-11-22T00:59:13;19.10;49.20
23377;DHT22;14353;46.070;13.222;2023-11-22T01:01:40;19.10;49.20
23377;DHT22;14353;46.070;13.222;2023-11-22T01:04:06;19.10;49.10
23377;DHT22;14353;46.070;13.222;2023-11-22T01:06:33;19.10;49.10
23377;DHT22;14353;46.070;13.222;2023-11-22T01:08:59;19.10;49.10
23377;DHT22;14353;46.070;13.222;2023-11-22T01:11:24;19.10;49.20
23377;DHT22;14353;46.070;13.222;2023-11-22T01:13:50;19.00;49.10
23377;DHT22;14353;46.070;13.222;2023-11-22T01:16:16;19.00;49.10
23377;DHT22;14353;46.070;13.222;2023-11-22T01:18:42;19.00;49.10
23377;DHT22;14353;46.070;13.222;2023-11-22T01:21:08;19.00;49.10
23377;DHT22;14353;46.070;13.222;2023-11-22T01:23:34;19.00;49.10
23377;DHT22;14353;46.070;13.222;2023-11-22T01:26:00;19.00;49.00
23377;DHT22;14353;46.070;13.222;2023-11-22T01:28:28;19.00;49.00
23377;DHT22;14353;46.070;13.222;2023-11-22T01:30:55;19.00;49.00
23377;DHT22;14353;46.070;13.222;2023-11-22T01:33:24;19.00;49.00
23377;DHT22;14353;46.070;13.222;2023-11-22T01:35:50;19.00;49.10
23377;DHT22;14353;46.070;13.222;2023-11-22T01:38:15;19.00;49.00
23377;DHT22;14353;46.070;13.222;2023-11-22T01:40:45;19.00;49.00
23377;DHT22;14353;46.070;13.222;2023-11-22T01:43:18;19.00;49.00
23377;DHT22;14353;46.070;13.222;2023-11-22T01:45:44;19.00;49.10
23377;DHT22;14353;46.070;13.222;2023-11-22T01:48:11;19.00;49.10
23377;DHT22;14353;46.070;13.222;2023-11-22T01:50:38;19.00;49.10
23377;DHT22;14353;46.070;13.222;2023-11-22T01:53:07;19.00;49.10
23377;DHT22;14353;46.070;13.222;2023-11-22T01:55:34;19.00;49.10
23377;DHT22;14353;46.070;13.222;2023-11-22T01:58:00;19.00;49.10
23377;DHT22;14353;46.070;13.222;2023-11-22T02:00:32;18.90;49.00
23377;DHT22;14353;46.070;13.222;2023-11-22T02:03:01;19.00;49.00
23377;DHT22;14353;46.070;13.222;2023-11-22T02:05:27;18.90;49.00
23377;DHT22;14353;46.070;13.222;2023-11-22T02:07:53;18.90;49.00
23377;DHT22;14353;46.070;13.222;2023-11-22T02:10:18;18.90;49.00
23377;DHT22;14353;46.070;13.222;2023-11-22T02:12:44;18.90;49.00
23377;DHT22;14353;46.070;13.222;2023-11-22T02:15:10;18.90;49.00
23377;DHT22;14353;46.070;13.222;2023-11-22T02:17:37;18.90;49.00
23377;DHT22;14353;46.070;13.222;2023-11-22T02:20:03;18.90;49.00
23377;DHT22;14353;46.070;13.222;2023-11-22T02:22:31;18.90;49.00
23377;DHT22;14353;46.070;13.222;2023-11-22T02:24:57;18.90;49.00
23377;DHT22;14353;46.070;13.222;2023-11-22T02:27:23;18.90;49.10
23377;DHT22;14353;46.070;13.222;2023-11-22T02:29:49;18.90;49.00
23377;DHT22;14353;46.070;13.222;2023-11-22T02:32:15;18.90;49.00
23377;DHT22;14353;46.070;13.222;2023-11-22T02:34:41;18.90;49.00
23377;DHT22;14353;46.070;13.222;2023-11-22T02:37:07;18.90;49.00
23377;DHT22;14353;46.070;13.222;2023-11-22T02:39:46;18.90;49.00
23377;DHT22;14353;46.070;13.222;2023-11-22T02:42:13;18.90;49.00
23377;DHT22;14353;46.070;13.222;2023-11-22T02:44:39;18.90;49.00
23377;DHT22;14353;46.070;13.222;2023-11-22T02:47:08;18.80;49.00
23377;DHT22;14353;46.070;13.222;2023-11-22T02:49:35;18.90;49.00
23377;DHT22;14353;46.070;13.222;2023-11-22T02:52:01;18.90;49.00
23377;DHT22;14353;46.070;13.222;2023-11-22T02:54:27;18.80;49.00
23377;DHT22;14353;46.070;13.222;2023-11-22T02:56:52;18.80;49.00
23377;DHT22;14353;46.070;13.222;2023-11-22T02:59:18;18.80;49.00
23377;DHT22;14353;46.070;13.222;2023-11-22T03:01:44;18.80;49.00
23377;DHT22;14353;46.070;13.222;2023-11-22T03:04:11;18.80;49.00
23377;DHT22;14353;46.070;13.222;2023-11-22T03:06:37;18.80;49.00
23377;DHT22;14353;46.070;13.222;2023-11-22T03:09:02;18.80;49.00
23377;DHT22;14353;46.070;13.222;2023-11-22T03:11:29;18.80;49.00
23377;DHT22;14353;46.070;13.222;2023-11-22T03:13:55;18.80;49.00
23377;DHT22;14353;46.070;13.222;2023-11-22T03:16:21;18.80;49.00
23377;DHT22;14353;46.070;13.222;2023-11-22T03:18:47;18.80;49.00
23377;DHT22;14353;46.070;13.222;2023-11-22T03:21:16;18.80;49.00
23377;DHT22;14353;46.070;13.222;2023-11-22T03:23:42;18.80;49.00
23377;DHT22;14353;46.070;13.222;2023-11-22T03:26:08;18.80;49.00
23377;DHT22;14353;46.070;13.222;2023-11-22T03:28:35;18.80;49.00
23377;DHT22;14353;46.070;13.222;2023-11-22T03:31:00;18.80;49.00
23377;DHT22;14353;46.070;13.222;2023-11-22T03:33:28;18.80;49.00
23377;DHT22;14353;46.070;13.222;2023-11-22T03:35:54;18.80;49.00
23377;DHT22;14353;46.070;13.222;2023-11-22T03:38:19;18.70;49.00
23377;DHT22;14353;46.070;13.222;2023-11-22T03:40:46;18.70;49.00
23377;DHT22;14353;46.070;13.222;2023-11-22T03:43:13;18.70;49.00
23377;DHT22;14353;46.070;13.222;2023-11-22T03:45:38;18.70;49.00
23377;DHT22;14353;46.070;13.222;2023-11-22T03:48:05;18.70;49.00
23377;DHT22;14353;46.070;13.222;2023-11-22T03:50:31;18.80;49.00
23377;DHT22;14353;46.070;13.222;2023-11-22T03:52:56;18.70;48.90
23377;DHT22;14353;46.070;13.222;2023-11-22T03:55:22;18.80;49.00
23377;DHT22;14353;46.070;13.222;2023-11-22T03:57:48;18.70;48.90
23377;DHT22;14353;46.070;13.222;2023-11-22T04:00:14;18.70;48.90
23377;DHT22;14353;46.070;13.222;2023-11-22T04:02:40;18.70;48.90
23377;DHT22;14353;46.070;13.222;2023-11-22T04:05:07;18.70;48.90
23377;DHT22;14353;46.070;13.222;2023-11-22T04:07:33;18.70;48.90
23377;DHT22;14353;46.070;13.222;2023-11-22T04:09:59;18.70;48.90
23377;DHT22;14353;46.070;13.222;2023-11-22T04:12:24;18.70;49.00
23377;DHT22;14353;46.070;13.222;2023-11-22T04:14:50;18.60;48.90
23377;DHT22;14353;46.070;13.222;2023-11-22T04:17:17;18.60;49.00
23377;DHT22;14353;46.070;13.222;2023-11-22T04:19:43;18.60;49.10
23377;DHT22;14353;46.070;13.222;2023-11-22T04:22:09;18.50;49.20
23377;DHT22;14353;46.070;13.222;2023-11-22T04:24:36;18.50;49.20
23377;DHT22;14353;46.070;13.222;2023-11-22T04:27:01;18.50;49.30
23377;DHT22;14353;46.070;13.222;2023-11-22T04:29:28;18.50;49.40
23377;DHT22;14353;46.070;13.222;2023-11-22T04:31:53;18.40;49.40
23377;DHT22;14353;46.070;13.222;2023-11-22T04:34:19;18.40;49.40
23377;DHT22;14353;46.070;13.222;2023-11-22T04:36:45;18.40;49.40
23377;DHT22;14353;46.070;13.222;2023-11-22T04:39:12;18.40;49.30
23377;DHT22;14353;46.070;13.222;2023-11-22T04:41:38;18.50;49.40
23377;DHT22;14353;46.070;13.222;2023-11-22T04:44:04;18.40;49.30
23377;DHT22;14353;46.070;13.222;2023-11-22T04:46:30;18.50;49.30
23377;DHT22;14353;46.070;13.222;2023-11-22T04:48:57;18.50;49.20
23377;DHT22;14353;46.070;13.222;2023-11-22T04:51:23;18.50;49.20
23377;DHT22;14353;46.070;13.222;2023-11-22T04:53:50;18.50;49.10
23377;DHT22;14353;46.070;13.222;2023-11-22T04:56:17;18.50;49.10
23377;DHT22;14353;46.070;13.222;2023-11-22T04:58:42;18.50;49.00
23377;DHT22;14353;46.070;13.222;2023-11-22T05:01:08;18.50;48.90
23377;DHT22;14353;46.070;13.222;2023-11-22T05:03:35;18.50;48.80
23377;DHT22;14353;46.070;13.222;2023-11-22T05:06:00;18.60;48.80
23377;DHT22;14353;46.070;13.222;2023-11-22T05:08:26;18.60;48.80
23377;DHT22;14353;46.070;13.222;2023-11-22T05:10:53;18.60;48.70
23377;DHT22;14353;46.070;13.222;2023-11-22T05:13:18;18.60;48.60
23377;DHT22;14353;46.070;13.222;2023-11-22T05:15:47;18.70;48.60
23377;DHT22;14353;46.070;13.222;2023-11-22T05:18:12;18.70;48.60
23377;DHT22;14353;46.070;13.222;2023-11-22T05:20:38;18.70;48.50
23377;DHT22;14353;46.070;13.222;2023-11-22T05:23:04;18.70;48.40
23377;DHT22;14353;46.070;13.222;2023-11-22T05:25:30;18.70;48.30
23377;DHT22;14353;46.070;13.222;2023-11-22T05:27:55;18.70;48.30
23377;DHT22;14353;46.070;13.222;2023-11-22T05:30:21;18.70;48.30
23377;DHT22;14353;46.070;13.222;2023-11-22T05:32:48;18.80;48.20
23377;DHT22;14353;46.070;13.222;2023-11-22T05:35:14;18.80;48.20
23377;DHT22;14353;46.070;13.222;2023-11-22T05:37:40;18.80;48.10
23377;DHT22;14353;46.070;13.222;2023-11-22T05:40:06;18.80;48.10
23377;DHT22;14353;46.070;13.222;2023-11-22T05:42:35;18.80;48.10
23377;DHT22;14353;46.070;13.222;2023-11-22T05:45:01;18.80;48.00
23377;DHT22;14353;46.070;13.222;2023-11-22T05:47:27;18.80;48.00
23377;DHT22;14353;46.070;13.222;2023-11-22T05:49:52;18.80;47.90
23377;DHT22;14353;46.070;13.222;2023-11-22T05:52:18;18.80;47.90
23377;DHT22;14353;46.070;13.222;2023-11-22T05:54:45;18.80;47.90
23377;DHT22;14353;46.070;13.222;2023-11-22T05:57:12;18.80;47.90
23377;DHT22;14353;46.070;13.222;2023-11-22T05:59:38;18.80;48.50
23377;DHT22;14353;46.070;13.222;2023-11-22T06:02:03;18.80;47.80
23377;DHT22;14353;46.070;13.222;2023-11-22T06:04:29;18.80;47.80
23377;DHT22;14353;46.070;13.222;2023-11-22T06:06:56;18.80;47.80
23377;DHT22;14353;46.070;13.222;2023-11-22T06:09:22;18.80;47.80
23377;DHT22;14353;46.070;13.222;2023-11-22T06:11:48;18.80;47.80
23377;DHT22;14353;46.070;13.222;2023-11-22T06:14:14;18.80;47.70
23377;DHT22;14353;46.070;13.222;2023-11-22T06:16:40;18.80;47.70
23377;DHT22;14353;46.070;13.222;2023-11-22T06:19:05;18.80;47.70
23377;DHT22;14353;46.070;13.222;2023-11-22T06:21:32;18.90;47.70
23377;DHT22;14353;46.070;13.222;2023-11-22T06:23:59;18.90;47.70
23377;DHT22;14353;46.070;13.222;2023-11-22T06:26:25;18.90;47.60
23377;DHT22;14353;46.070;13.222;2023-11-22T06:28:51;18.90;47.50
23377;DHT22;14353;46.070;13.222;2023-11-22T06:31:16;18.90;47.50
23377;DHT22;14353;46.070;13.222;2023-11-22T06:33:42;18.90;47.50
23377;DHT22;14353;46.070;13.222;2023-11-22T06:36:08;18.90;47.40
23377;DHT22;14353;46.070;13.222;2023-11-22T06:38:36;18.90;47.40
23377;DHT22;14353;46.070;13.222;2023-11-22T06:41:02;19.00;47.40
23377;DHT22;14353;46.070;13.222;2023-11-22T06:43:28;19.00;47.40
23377;DHT22;14353;46.070;13.222;2023-11-22T06:45:53;19.00;47.90
23377;DHT22;14353;46.070;13.222;2023-11-22T06:48:19;19.00;47.30
23377;DHT22;14353;46.070;13.222;2023-11-22T06:50:45;19.00;47.20
23377;DHT22;14353;46.070;13.222;2023-11-22T06:53:11;19.00;47.20
23377;DHT22;14353;46.070;13.222;2023-11-22T06:55:37;19.00;47.80
23377;DHT22;14353;46.070;13.222;2023-11-22T06:58:04;19.00;47.10
23377;DHT22;14353;46.070;13.222;2023-11-22T07:00:31;19.10;47.10
23377;DHT22;14353;46.070;13.222;2023-11-22T07:02:58;19.10;47.10
23377;DHT22;14353;46.070;13.222;2023-11-22T07:05:24;19.10;47.00
23377;DHT22;14353;46.070;13.222;2023-11-22T07:07:49;19.10;47.00
23377;DHT22;14353;46.070;13.222;2023-11-22T07:10:15;19.10;47.00
23377;DHT22;14353;46.070;13.222;2023-11-22T07:12:41;19.10;46.90
23377;DHT22;14353;46.070;13.222;2023-11-22T07:15:09;19.20;46.80
23377;DHT22;14353;46.070;13.222;2023-11-22T07:17:35;19.20;46.70
23377;DHT22;14353;46.070;13.222;2023-11-22T07:20:02;19.20;46.60
23377;DHT22;14353;46.070;13.222;2023-11-22T07:22:27;19.30;46.70
23377;DHT22;14353;46.070;13.222;2023-11-22T07:24:55;19.30;46.60
23377;DHT22;14353;46.070;13.222;2023-11-22T07:27:25;19.30;46.60
23377;DHT22;14353;46.070;13.222;2023-11-22T07:29:51;19.30;46.40
23377;DHT22;14353;46.070;13.222;2023-11-22T07:32:17;19.40;46.40
23377;DHT22;14353;46.070;13.222;2023-11-22T07:34:45;19.40;46.30
23377;DHT22;14353;46.070;13.222;2023-11-22T07:37:11;19.40;46.20
23377;DHT22;14353;46.070;13.222;2023-11-22T07:39:38;19.50;46.20
23377;DHT22;14353;46.070;13.222;2023-11-22T07:42:05;19.50;46.10
23377;DHT22;14353;46.070;13.222;2023-11-22T07:44:35;19.50;45.90
23377;DHT22;14353;46.070;13.222;2023-11-22T07:47:03;19.60;45.90
23377;DHT22;14353;46.070;13.222;2023-11-22T07:49:33;19.60;45.90
23377;DHT22;14353;46.070;13.222;2023-11-22T07:52:02;19.60;45.90
23377;DHT22;14353;46.070;13.222;2023-11-22T07:54:28;19.70;45.90
23377;DHT22;14353;46.070;13.222;2023-11-22T07:56:55;19.60;45.80
23377;DHT22;14353;46.070;13.222;2023-11-22T07:59:21;19.70;45.80
23377;DHT22;14353;46.070;13.222;2023-11-22T08:01:47;19.60;45.70
23377;DHT22;14353;46.070;13.222;2023-11-22T08:04:16;19.70;45.70
23377;DHT22;14353;46.070;13.222;2023-11-22T08:06:43;19.70;45.60
23377;DHT22;14353;46.070;13.222;2023-11-22T08:09:09;19.70;45.50
23377;DHT22;14353;46.070;13.222;2023-11-22T08:11:36;19.80;45.90
23377;DHT22;14353;46.070;13.222;2023-11-22T08:14:05;19.80;46.30
23377;DHT22;14353;46.070;13.222;2023-11-22T08:16:31;19.90;47.10
23377;DHT22;14353;46.070;13.222;2023-11-22T08:18:58;20.00;48.40
23377;DHT22;14353;46.070;13.222;2023-11-22T08:21:23;20.00;46.20
23377;DHT22;14353;46.070;13.222;2023-11-22T08:23:50;20.10;45.50
23377;DHT22;14353;46.070;13.222;2023-11-22T08:26:16;20.10;45.90
23377;DHT22;14353;46.070;13.222;2023-11-22T08:28:42;20.20;45.70
23377;DHT22;14353;46.070;13.222;2023-11-22T08:31:08;20.20;44.50
23377;DHT22;14353;46.070;13.222;2023-11-22T08:33:35;20.30;44.20
23377;DHT22;14353;46.070;13.222;2023-11-22T08:36:01;20.50;44.20
23377;DHT22;14353;46.070;13.222;2023-11-22T08:38:28;20.50;43.60
23377;DHT22;14353;46.070;13.222;2023-11-22T08:40:53;20.70;43.50
23377;DHT22;14353;46.070;13.222;2023-11-22T08:43:20;20.90;42.80
23377;DHT22;14353;46.070;13.222;2023-11-22T08:45:52;21.10;42.30
23377;DHT22;14353;46.070;13.222;2023-11-22T08:48:17;21.30;41.80
23377;DHT22;14353;46.070;13.222;2023-11-22T08:50:43;22.10;40.70
23377;DHT22;14353;46.070;13.222;2023-11-22T08:53:16;24.20;37.70
23377;DHT22;14353;46.070;13.222;2023-11-22T08:55:44;26.20;33.80
23377;DHT22;14353;46.070;13.222;2023-11-22T08:58:13;28.10;30.70
23377;DHT22;14353;46.070;13.222;2023-11-22T09:00:39;29.50;28.70
23377;DHT22;14353;46.070;13.222;2023-11-22T09:03:07;30.10;27.50
23377;DHT22;14353;46.070;13.222;2023-11-22T09:05:34;30.60;27.20
23377;DHT22;14353;46.070;13.222;2023-11-22T09:08:02;30.50;27.00
23377;DHT22;14353;46.070;13.222;2023-11-22T09:10:29;29.50;27.90
23377;DHT22;14353;46.070;13.222;2023-11-22T09:12:56;29.50;27.80
23377;DHT22;14353;46.070;13.222;2023-11-22T09:15:24;29.40;28.10
23377;DHT22;14353;46.070;13.222;2023-11-22T09:17:52;29.60;28.10
23377;DHT22;14353;46.070;13.222;2023-11-22T09:20:20;28.20;28.70
23377;DHT22;14353;46.070;13.222;2023-11-22T09:22:47;26.90;30.40
23377;DHT22;14353;46.070;13.222;2023-11-22T09:25:21;25.90;32.30
23377;DHT22;14353;46.070;13.222;2023-11-22T09:27:49;25.00;33.80
23377;DHT22;14353;46.070;13.222;2023-11-22T09:30:20;24.60;35.00
23377;DHT22;14353;46.070;13.222;2023-11-22T09:33:18;24.20;35.90
23377;DHT22;14353;46.070;13.222;2023-11-22T09:35:45;23.90;36.50
23377;DHT22;14353;46.070;13.222;2023-11-22T09:38:12;23.70;37.00
23377;DHT22;14353;46.070;13.222;2023-11-22T09:40:42;23.60;37.30
23377;DHT22;14353;46.070;13.222;2023-11-22T09:43:09;23.60;37.60
23377;DHT22;14353;46.070;13.222;2023-11-22T09:45:35;23.50;37.60
23377;DHT22;14353;46.070;13.222;2023-11-22T09:48:14;23.50;37.80
23377;DHT22;14353;46.070;13.222;2023-11-22T09:50:56;23.50;37.90
23377;DHT22;14353;46.070;13.222;2023-11-22T09:53:55;23.50;37.80
23377;DHT22;14353;46.070;13.222;2023-11-22T09:56:27;23.60;37.80
23377;DHT22;14353;46.070;13.222;2023-11-22T09:58:57;23.70;37.80
23377;DHT22;14353;46.070;13.222;2023-11-22T10:01:23;23.70;37.70
23377;DHT22;14353;46.070;13.222;2023-11-22T10:03:49;23.80;37.70
23377;DHT22;14353;46.070;13.222;2023-11-22T10:06:17;23.80;37.50
23377;DHT22;14353;46.070;13.222;2023-11-22T10:08:43;23.90;37.40
23377;DHT22;14353;46.070;13.222;2023-11-22T10:11:15;24.00;37.40
23377;DHT22;14353;46.070;13.222;2023-11-22T10:13:49;24.00;37.30
23377;DHT22;14353;46.070;13.222;2023-11-22T10:16:17;24.10;37.10
23377;DHT22;14353;46.070;13.222;2023-11-22T10:18:45;24.30;36.90
23377;DHT22;14353;46.070;13.222;2023-11-22T10:21:23;24.40;36.80
23377;DHT22;14353;46.070;13.222;2023-11-22T10:23:50;24.50;36.50
23377;DHT22;14353;46.070;13.222;2023-11-22T10:26:28;24.70;36.20
23377;DHT22;14353;46.070;13.222;2023-11-22T10:29:04;24.80;35.90
23377;DHT22;14353;46.070;13.222;2023-11-22T10:31:29;25.00;35.60
23377;DHT22;14353;46.070;13.222;2023-11-22T10:33:55;25.20;35.40
23377;DHT22;14353;46.070;13.222;2023-11-22T10:36:23;25.40;35.20
23377;DHT22;14353;46.070;13.222;2023-11-22T10:38:49;25.50;34.80
23377;DHT22;14353;46.070;13.222;2023-11-22T10:41:16;25.70;34.50
23377;DHT22;14353;46.070;13.222;2023-11-22T10:43:43;26.00;34.20
23377;DHT22;14353;46.070;13.222;2023-11-22T10:46:12;26.20;33.80
23377;DHT22;14353;46.070;13.222;2023-11-22T10:48:38;26.60;33.30
23377;DHT22;14353;46.070;13.222;2023-11-22T10:51:05;27.00;32.50
23377;DHT22;14353;46.070;13.222;2023-11-22T10:56:14;27.90;31.10
23377;DHT22;14353;46.070;13.222;2023-11-22T10:58:47;28.50;30.30
23377;DHT22;14353;46.070;13.222;2023-11-22T11:01:15;28.90;29.60
23377;DHT22;14353;46.070;13.222;2023-11-22T11:04:24;29.60;29.10
23377;DHT22;14353;46.070;13.222;2023-11-22T11:06:54;30.20;28.30
23377;DHT22;14353;46.070;13.222;2023-11-22T11:09:22;30.70;27.80
23377;DHT22;14353;46.070;13.222;2023-11-22T11:11:52;31.00;27.30
23377;DHT22;14353;46.070;13.222;2023-11-22T11:14:18;31.40;26.90
23377;DHT22;14353;46.070;13.222;2023-11-22T11:16:45;31.70;26.60
23377;DHT22;14353;46.070;13.222;2023-11-22T11:19:16;32.10;26.20
23377;DHT22;14353;46.070;13.222;2023-11-22T11:21:47;32.30;25.80
23377;DHT22;14353;46.070;13.222;2023-11-22T11:24:13;32.50;25.50
23377;DHT22;14353;46.070;13.222;2023-11-22T11:26:40;32.70;25.30
23377;DHT22;14353;46.070;13.222;2023-11-22T11:29:06;32.90;25.10
23377;DHT22;14353;46.070;13.222;2023-11-22T11:31:34;33.00;24.90
23377;DHT22;14353;46.070;13.222;2023-11-22T11:34:07;33.40;24.60
23377;DHT22;14353;46.070;13.222;2023-11-22T11:36:33;33.60;24.50
23377;DHT22;14353;46.070;13.222;2023-11-22T11:39:00;33.70;24.30
23377;DHT22;14353;46.070;13.222;2023-11-22T11:41:31;33.70;24.20
23377;DHT22;14353;46.070;13.222;2023-11-22T11:44:03;33.80;24.60
23377;DHT22;14353;46.070;13.222;2023-11-22T11:46:30;33.90;24.00
23377;DHT22;14353;46.070;13.222;2023-11-22T11:48:56;34.00;24.00
23377;DHT22;14353;46.070;13.222;2023-11-22T11:51:27;34.10;23.90
23377;DHT22;14353;46.070;13.222;2023-11-22T11:53:54;34.30;23.80
23377;DHT22;14353;46.070;13.222;2023-11-22T11:56:20;34.30;23.70
23377;DHT22;14353;46.070;13.222;2023-11-22T11:58:48;34.30;23.60
23377;DHT22;14353;46.070;13.222;2023-11-22T12:01:17;34.50;23.60
23377;DHT22;14353;46.070;13.222;2023-11-22T12:03:45;34.50;23.50
23377;DHT22;14353;46.070;13.222;2023-11-22T12:06:15;34.50;23.40
23377;DHT22;14353;46.070;13.222;2023-11-22T12:08:41;34.40;23.50
23377;DHT22;14353;46.070;13.222;2023-11-22T12:11:07;34.40;23.60
23377;DHT22;14353;46.070;13.222;2023-11-22T12:13:34;34.40;23.60
23377;DHT22;14353;46.070;13.222;2023-11-22T12:16:04;34.60;23.70
23377;DHT22;14353;46.070;13.222;2023-11-22T12:18:40;34.60;23.50
23377;DHT22;14353;46.070;13.222;2023-11-22T12:21:06;34.90;22.40
23377;DHT22;14353;46.070;13.222;2023-11-22T12:23:32;34.70;22.00
23377;DHT22;14353;46.070;13.222;2023-11-22T12:26:01;34.40;21.70
23377;DHT22;14353;46.070;13.222;2023-11-22T12:28:28;33.80;22.30
23377;DHT22;14353;46.070;13.222;2023-11-22T12:30:54;33.90;22.10
23377;DHT22;14353;46.070;13.222;2023-11-22T12:33:20;33.90;21.90
23377;DHT22;14353;46.070;13.222;2023-11-22T12:35:47;34.00;21.80
23377;DHT22;14353;46.070;13.222;2023-11-22T12:38:15;33.60;21.80
23377;DHT22;14353;46.070;13.222;2023-11-22T12:40:45;33.60;22.10
23377;DHT22;14353;46.070;13.222;2023-11-22T12:43:14;34.00;22.60
23377;DHT22;14353;46.070;13.222;2023-11-22T12:45:40;34.60;22.50
23377;DHT22;14353;46.070;13.222;2023-11-22T12:48:24;35.10;22.30
23377;DHT22;14353;46.070;13.222;2023-11-22T12:50:50;35.70;22.20
23377;DHT22;14353;46.070;13.222;2023-11-22T12:53:16;36.00;22.10
23377;DHT22;14353;46.070;13.222;2023-11-22T12:55:46;36.40;22.20
23377;DHT22;14353;46.070;13.222;2023-11-22T12:58:22;36.00;22.40
23377;DHT22;14353;46.070;13.222;2023-11-22T13:00:50;36.10;22.60
23377;DHT22;14353;46.070;13.222;2023-11-22T13:03:16;36.10;22.30
23377;DHT22;14353;46.070;13.222;2023-11-22T13:05:43;35.60;22.70
23377;DHT22;14353;46.070;13.222;2023-11-22T13:08:10;35.60;22.70
23377;DHT22;14353;46.070;13.222;2023-11-22T13:10:40;35.30;21.80
23377;DHT22;14353;46.070;13.222;2023-11-22T13:13:05;34.90;22.60
23377;DHT22;14353;46.070;13.222;2023-11-22T13:15:34;35.10;22.90
23377;DHT22;14353;46.070;13.222;2023-11-22T13:18:00;35.30;22.90
23377;DHT22;14353;46.070;13.222;2023-11-22T13:20:27;35.50;22.70
23377;DHT22;14353;46.070;13.222;2023-11-22T13:22:54;35.30;23.00
23377;DHT22;14353;46.070;13.222;2023-11-22T13:25:23;35.10;23.40
23377;DHT22;14353;46.070;13.222;2023-11-22T13:27:50;34.80;23.80
23377;DHT22;14353;46.070;13.222;2023-11-22T13:30:17;34.10;24.30
23377;DHT22;14353;46.070;13.222;2023-11-22T13:32:55;33.30;25.10
23377;DHT22;14353;46.070;13.222;2023-11-22T13:35:25;32.20;25.90
23377;DHT22;14353;46.070;13.222;2023-11-22T13:37:53;31.00;27.10
23377;DHT22;14353;46.070;13.222;2023-11-22T13:40:20;30.20;28.10
23377;DHT22;14353;46.070;13.222;2023-11-22T13:42:49;29.50;29.00
23377;DHT22;14353;46.070;13.222;2023-11-22T13:45:17;29.00;29.70
23377;DHT22;14353;46.070;13.222;2023-11-22T13:47:44;28.60;30.10
23377;DHT22;14353;46.070;13.222;2023-11-22T13:50:11;28.40;30.50
23377;DHT22;14353;46.070;13.222;2023-11-22T13:52:40;28.10;30.90
23377;DHT22;14353;46.070;13.222;2023-11-22T13:55:06;27.90;31.40
23377;DHT22;14353;46.070;13.222;2023-11-22T13:57:36;27.70;31.70
23377;DHT22;14353;46.070;13.222;2023-11-22T14:00:04;27.60;31.90
23377;DHT22;14353;46.070;13.222;2023-11-22T14:02:35;27.70;32.00
23377;DHT22;14353;46.070;13.222;2023-11-22T14:05:02;27.60;32.10
23377;DHT22;14353;46.070;13.222;2023-11-22T14:07:28;27.60;32.30
23377;DHT22;14353;46.070;13.222;2023-11-22T14:09:55;27.50;32.40
23377;DHT22;14353;46.070;13.222;2023-11-22T14:12:20;27.50;32.60
23377;DHT22;14353;46.070;13.222;2023-11-22T14:14:46;27.50;32.70
23377;DHT22;14353;46.070;13.222;2023-11-22T14:17:12;27.40;32.70
23377;DHT22;14353;46.070;13.222;2023-11-22T14:19:39;27.40;32.80
23377;DHT22;14353;46.070;13.222;2023-11-22T14:22:05;27.40;32.90
23377;DHT22;14353;46.070;13.222;2023-11-22T14:24:31;27.40;33.10
23377;DHT22;14353;46.070;13.222;2023-11-22T14:27:02;27.30;33.20
23377;DHT22;14353;46.070;13.222;2023-11-22T14:29:28;27.30;33.30
23377;DHT22;14353;46.070;13.222;2023-11-22T14:31:54;27.20;33.40
23377;DHT22;14353;46.070;13.222;2023-11-22T14:34:19;27.20;34.30
23377;DHT22;14353;46.070;13.222;2023-11-22T14:36:46;27.10;33.70
23377;DHT22;14353;46.070;13.222;2023-11-22T14:39:11;27.00;33.80
23377;DHT22;14353;46.070;13.222;2023-11-22T14:41:40;26.90;34.10
23377;DHT22;14353;46.070;13.222;2023-11-22T14:44:06;26.90;34.20
23377;DHT22;14353;46.070;13.222;2023-11-22T14:46:32;26.80;34.30
23377;DHT22;14353;46.070;13.222;2023-11-22T14:48:58;26.70;34.50
23377;DHT22;14353;46.070;13.222;2023-11-22T14:51:24;26.70;34.60
23377;DHT22;14353;46.070;13.222;2023-11-22T14:53:49;26.60;34.80
23377;DHT22;14353;46.070;13.222;2023-11-22T14:56:15;26.60;34.80
23377;DHT22;14353;46.070;13.222;2023-11-22T14:58:41;26.50;35.00
23377;DHT22;14353;46.070;13.222;2023-11-22T15:01:07;26.50;35.10
23377;DHT22;14353;46.070;13.222;2023-11-22T15:03:35;26.40;35.10
23377;DHT22;14353;46.070;13.222;2023-11-22T15:06:01;26.40;35.30
23377;DHT22;14353;46.070;13.222;2023-11-22T15:08:27;26.30;35.30
23377;DHT22;14353;46.070;13.222;2023-11-22T15:10:56;26.30;35.60
23377;DHT22;14353;46.070;13.222;2023-11-22T15:13:22;26.20;35.70
23377;DHT22;14353;46.070;13.222;2023-11-22T15:15:48;26.10;35.90
23377;DHT22;14353;46.070;13.222;2023-11-22T15:18:13;25.90;36.00